createdAt,value
2023-01-25T00:01:27.483Z,1.50
2023-01-25T00:03:55.901Z,1.40
2023-01-25T00:06:24.403Z,1.50
2023-01-25T00:08:52.914Z,1.40
2023-01-25T00:11:22.704Z,1.40
2023-01-25T00:13:51.139Z,1.50
2023-01-25T00:16:19.609Z,1.50
2023-01-25T00:18:48.093Z,1.50
2023-01-25T00:21:18.750Z,1.50
2023-01-25T00:23:47.242Z,1.50
2023-01-25T00:26:15.887Z,1.60
2023-01-25T00:28:51.121Z,1.60
2023-01-25T00:31:32.887Z,1.60
2023-01-25T00:34:08.816Z,1.50
2023-01-25T00:36:42.813Z,1.40
2023-01-25T00:39:14.516Z,1.40
2023-01-25T00:41:42.917Z,1.40
2023-01-25T00:44:12.901Z,1.50
2023-01-25T00:46:41.293Z,1.50
2023-01-25T00:49:24.265Z,1.50
2023-01-25T00:51:53.194Z,1.50
2023-01-25T00:54:23.060Z,1.50
2023-01-25T00:56:53.901Z,1.40
2023-01-25T00:59:24.395Z,1.50
2023-01-25T01:01:53.847Z,1.50
2023-01-25T01:04:25.149Z,1.50
2023-01-25T01:06:54.628Z,1.50
2023-01-25T01:09:24.023Z,1.40
2023-01-25T01:11:52.404Z,1.40
2023-01-25T01:14:21.370Z,1.40
2023-01-25T01:16:51.276Z,1.30
2023-01-25T01:19:19.898Z,1.30
2023-01-25T01:21:48.436Z,1.30
2023-01-25T01:24:18.089Z,1.40
2023-01-25T01:26:46.793Z,1.40
2023-01-25T01:29:15.295Z,1.40
2023-01-25T01:31:43.755Z,1.40
2023-01-25T01:34:15.699Z,1.40
2023-01-25T01:36:44.346Z,1.40
2023-01-25T01:39:12.835Z,1.30
2023-01-25T01:41:41.266Z,1.30
2023-01-25T01:44:18.798Z,1.40
2023-01-25T01:46:54.035Z,1.30
2023-01-25T01:49:27.661Z,1.40
2023-01-25T01:52:00.700Z,1.40
2023-01-25T01:54:34.317Z,1.40
2023-01-25T01:57:06.884Z,1.40
2023-01-25T01:59:40.901Z,1.30
2023-01-25T02:02:09.683Z,1.20
2023-01-25T02:04:39.783Z,1.20
2023-01-25T02:07:14.836Z,1.20
2023-01-25T02:09:44.681Z,1.20
2023-01-25T02:12:14.298Z,1.30
2023-01-25T02:14:49.389Z,1.30
2023-01-25T02:17:18.908Z,1.40
2023-01-25T02:19:59.174Z,1.30
2023-01-25T02:22:33.636Z,1.30
2023-01-25T02:25:07.523Z,1.20
2023-01-25T02:27:40.025Z,1.20
2023-01-25T02:30:09.748Z,1.20
2023-01-25T02:32:38.485Z,1.20
2023-01-25T02:35:08.122Z,1.20
2023-01-25T02:37:36.690Z,1.20
2023-01-25T02:40:07.473Z,1.20
2023-01-25T02:42:36.276Z,1.20
2023-01-25T02:45:10.847Z,1.20
2023-01-25T02:47:39.227Z,1.20
2023-01-25T02:50:09.537Z,1.20
2023-01-25T02:52:37.974Z,1.10
2023-01-25T02:55:09.637Z,1.00
2023-01-25T02:57:38.257Z,1.00
2023-01-25T03:00:07.964Z,1.10
2023-01-25T03:02:36.608Z,1.10
2023-01-25T03:05:05.504Z,1.10
2023-01-25T03:07:34.070Z,1.20
2023-01-25T03:10:02.540Z,1.20
2023-01-25T03:12:32.273Z,1.20
2023-01-25T03:15:01.050Z,1.20
2023-01-25T03:17:31.313Z,1.20
2023-01-25T03:19:59.777Z,1.20
2023-01-25T03:22:28.095Z,1.20
2023-01-25T03:24:57.396Z,1.20
2023-01-25T03:27:25.763Z,1.20
2023-01-25T03:29:55.580Z,1.20
2023-01-25T03:32:24.425Z,1.20
2023-01-25T03:34:52.963Z,1.10
2023-01-25T03:37:23.437Z,1.10
2023-01-25T03:39:52.008Z,1.10
2023-01-25T03:42:21.665Z,1.20
2023-01-25T03:44:50.052Z,1.20
2023-01-25T03:47:19.829Z,1.30
2023-01-25T03:49:48.291Z,1.20
2023-01-25T03:52:16.625Z,1.20
2023-01-25T03:54:45.064Z,1.20
2023-01-25T03:57:13.508Z,1.30
2023-01-25T03:59:41.892Z,1.20
2023-01-25T04:02:14.839Z,1.20
2023-01-25T04:04:44.640Z,1.10
2023-01-25T04:07:13.095Z,1.10
2023-01-25T04:09:41.425Z,1.10
2023-01-25T04:12:09.926Z,1.10
2023-01-25T04:14:44.309Z,1.10
2023-01-25T04:17:14.216Z,1.10
2023-01-25T04:19:43.988Z,1.10
2023-01-25T04:22:13.008Z,1.10
2023-01-25T04:24:41.528Z,1.20
2023-01-25T04:27:10.063Z,1.20
2023-01-25T04:29:41.644Z,1.20
2023-01-25T04:32:10.745Z,1.20
2023-01-25T04:34:39.174Z,1.10
2023-01-25T04:37:09.164Z,1.10
2023-01-25T04:39:37.500Z,1.10
2023-01-25T04:42:06.014Z,1.10
2023-01-25T04:44:34.331Z,1.20
2023-01-25T04:47:03.859Z,1.20
2023-01-25T04:49:32.516Z,1.10
2023-01-25T04:52:00.851Z,1.20
2023-01-25T04:54:31.077Z,1.10
2023-01-25T04:56:59.409Z,1.10
2023-01-25T04:59:29.364Z,1.10
2023-01-25T05:01:57.708Z,1.10
2023-01-25T05:04:26.236Z,1.00
2023-01-25T05:06:54.648Z,1.10
2023-01-25T05:09:22.991Z,1.10
2023-01-25T05:11:52.821Z,1.00
2023-01-25T05:14:22.185Z,0.90
2023-01-25T05:16:50.593Z,0.90
2023-01-25T05:19:19.063Z,0.90
2023-01-25T05:21:59.673Z,0.90
2023-01-25T05:24:30.738Z,0.90
2023-01-25T05:27:03.982Z,0.90
2023-01-25T05:29:35.855Z,1.00
2023-01-25T05:32:04.779Z,1.00
2023-01-25T05:34:33.567Z,1.00
2023-01-25T05:37:02.882Z,1.00
2023-01-25T05:39:31.495Z,0.90
2023-01-25T05:42:02.271Z,0.90
2023-01-25T05:44:30.983Z,0.90
2023-01-25T05:46:59.766Z,0.90
2023-01-25T05:49:28.092Z,0.90
2023-01-25T05:51:56.523Z,0.90
2023-01-25T05:54:25.026Z,0.90
2023-01-25T05:56:53.415Z,0.90
2023-01-25T05:59:23.204Z,0.80
2023-01-25T06:01:51.579Z,0.80
2023-01-25T06:04:19.958Z,0.70
2023-01-25T06:06:48.349Z,0.70
2023-01-25T06:09:16.700Z,0.70
2023-01-25T06:11:46.002Z,0.70
2023-01-25T06:14:14.358Z,0.70
2023-01-25T06:16:44.160Z,0.70
2023-01-25T06:19:14.732Z,0.70
2023-01-25T06:21:43.161Z,0.80
2023-01-25T06:24:11.825Z,0.80
2023-01-25T06:26:40.228Z,0.80
2023-01-25T06:29:10.899Z,0.90
2023-01-25T06:31:39.361Z,0.80
2023-01-25T06:34:09.614Z,0.80
2023-01-25T06:36:37.955Z,0.70
2023-01-25T06:39:06.825Z,0.80
2023-01-25T06:41:35.347Z,0.70
2023-01-25T06:44:03.733Z,0.70
2023-01-25T06:46:33.825Z,0.70
2023-01-25T06:49:02.615Z,0.70
2023-01-25T06:51:32.405Z,0.70
2023-01-25T06:54:04.906Z,0.60
2023-01-25T06:56:33.869Z,0.70
2023-01-25T06:59:02.548Z,0.70
2023-01-25T07:01:31.165Z,0.60
2023-01-25T07:04:02.325Z,0.70
2023-01-25T07:06:35.192Z,0.60
2023-01-25T07:09:05.550Z,0.70
2023-01-25T07:11:33.924Z,0.70
2023-01-25T07:14:03.173Z,0.70
2023-01-25T07:16:36.921Z,0.60
2023-01-25T07:19:05.967Z,0.70
2023-01-25T07:21:35.773Z,0.60
2023-01-25T07:24:06.754Z,0.60
2023-01-25T07:26:35.696Z,0.50
2023-01-25T07:29:04.579Z,0.50
2023-01-25T07:31:33.254Z,0.50
2023-01-25T07:34:02.262Z,0.60
2023-01-25T07:36:30.708Z,0.60
2023-01-25T07:39:01.093Z,0.60
2023-01-25T07:41:29.439Z,0.60
2023-01-25T07:43:57.987Z,0.70
2023-01-25T07:46:26.366Z,0.60
2023-01-25T07:48:55.206Z,0.60
2023-01-25T07:51:26.852Z,0.70
2023-01-25T07:53:57.043Z,0.60
2023-01-25T07:56:29.075Z,0.60
2023-01-25T07:58:58.585Z,0.60
2023-01-25T08:01:29.174Z,0.60
2023-01-25T08:03:58.095Z,0.60
2023-01-25T08:06:31.271Z,0.60
2023-01-25T08:09:00.364Z,0.60
2023-01-25T08:11:32.245Z,0.70
2023-01-25T08:14:02.029Z,0.60
2023-01-25T08:16:31.234Z,0.60
2023-01-25T11:07:50.741Z,1.10
2023-01-25T11:10:30.139Z,1.20
2023-01-25T11:13:21.046Z,1.10
2023-01-25T11:15:52.285Z,1.00
2023-01-25T11:18:23.534Z,1.10
2023-01-25T11:21:07.512Z,1.20
2023-01-25T11:23:37.670Z,1.20
2023-01-25T11:26:18.027Z,1.10
2023-01-25T11:28:49.115Z,1.10
2023-01-25T11:31:21.953Z,1.10
2023-01-25T11:33:50.555Z,1.10
2023-01-25T11:36:26.536Z,1.10
2023-01-25T11:39:11.559Z,1.30
2023-01-25T11:41:52.538Z,1.30
2023-01-25T11:44:59.471Z,1.10
2023-01-25T11:47:41.724Z,1.20
2023-01-25T11:50:20.615Z,1.20
2023-01-25T11:53:12.677Z,1.20
2023-01-25T11:55:49.007Z,1.10
2023-01-25T11:58:33.328Z,1.20
2023-01-25T12:01:13.243Z,1.30
2023-01-25T12:04:12.656Z,1.30
2023-01-25T12:06:51.315Z,1.30
2023-01-25T12:09:34.108Z,1.30
2023-01-25T12:12:13.921Z,1.40
2023-01-25T12:15:10.496Z,1.40
2023-01-25T12:17:58.308Z,1.40
2023-01-25T12:20:39.204Z,1.40
2023-01-25T12:23:32.674Z,1.30
2023-01-25T12:26:13.819Z,1.30
2023-01-25T12:28:48.380Z,1.20
2023-01-25T12:31:24.313Z,1.20
2023-01-25T12:33:58.260Z,1.30
2023-01-25T12:36:31.806Z,1.20
2023-01-25T12:39:04.687Z,1.30
2023-01-25T12:41:41.088Z,1.20
2023-01-25T12:44:18.285Z,1.20
2023-01-25T12:46:54.381Z,1.10
2023-01-25T12:49:28.669Z,1.10
2023-01-25T12:52:00.684Z,1.10
2023-01-25T12:54:33.718Z,1.20
2023-01-25T12:57:23.346Z,1.30
2023-01-25T13:00:02.547Z,1.30
2023-01-25T13:02:51.939Z,1.10
2023-01-25T13:05:37.512Z,1.10
2023-01-25T13:08:30.764Z,1.20
2023-01-25T13:11:09.302Z,1.20
2023-01-25T13:13:39.389Z,1.20
2023-01-25T13:16:39.730Z,1.20
2023-01-25T13:19:21.243Z,1.20
2023-01-25T13:21:52.354Z,1.10
2023-01-25T13:24:25.852Z,1.20
2023-01-25T13:27:03.739Z,1.20
2023-01-25T13:29:56.318Z,1.20
2023-01-25T13:33:05.689Z,1.20
2023-01-25T13:35:42.529Z,1.10
2023-01-25T13:38:36.879Z,1.10
2023-01-25T13:41:17.316Z,1.20
2023-01-25T13:43:49.538Z,1.10
2023-01-25T13:46:23.605Z,1.10
2023-01-25T13:49:03.527Z,1.10
2023-01-25T13:51:40.873Z,1.00
2023-01-25T13:54:17.479Z,1.00
2023-01-25T13:56:46.353Z,0.90
2023-01-25T13:59:28.390Z,0.90
2023-01-25T14:01:58.302Z,0.90
2023-01-25T14:04:27.139Z,0.90
2023-01-25T14:07:03.218Z,0.90
2023-01-25T14:09:31.701Z,1.00
2023-01-25T14:12:03.900Z,1.00
2023-01-25T14:14:33.762Z,1.00
2023-01-25T14:17:11.796Z,1.00
2023-01-25T14:19:43.012Z,0.90
2023-01-25T14:22:31.302Z,1.00
2023-01-25T14:25:09.111Z,1.00
2023-01-25T14:27:42.281Z,0.90
2023-01-25T14:30:18.244Z,0.90
2023-01-25T14:32:46.725Z,0.90
2023-01-25T14:35:53.889Z,0.90
2023-01-25T14:38:30.669Z,0.80
2023-01-25T14:41:03.455Z,0.80
2023-01-25T14:43:32.711Z,0.90
2023-01-25T14:46:01.086Z,0.90
2023-01-25T14:48:41.631Z,0.90
2023-01-25T14:51:19.539Z,0.80
2023-01-25T14:53:53.592Z,0.90
2023-01-25T14:56:41.672Z,0.80
2023-01-25T14:59:30.797Z,0.80
2023-01-25T15:02:02.234Z,0.80
2023-01-25T15:04:33.285Z,0.70
2023-01-25T15:07:16.711Z,0.80
2023-01-25T15:10:04.591Z,0.80
2023-01-25T15:12:33.953Z,0.80
2023-01-25T15:15:03.669Z,0.80
2023-01-25T15:17:44.480Z,0.80
2023-01-25T15:20:30.058Z,0.80
2023-01-25T15:23:01.196Z,0.80
2023-01-25T15:25:31.337Z,0.80
2023-01-25T15:27:59.812Z,0.90
2023-01-25T15:30:28.462Z,0.90
2023-01-25T15:33:04.163Z,0.90
2023-01-25T15:35:34.662Z,0.90
2023-01-25T15:38:05.471Z,0.90
2023-01-25T15:40:35.583Z,0.90
2023-01-25T15:43:05.185Z,0.90
2023-01-25T15:45:34.011Z,0.90
2023-01-25T15:48:03.945Z,0.90
2023-01-25T15:50:32.467Z,0.90
2023-01-25T15:53:00.813Z,0.90
2023-01-25T15:55:29.335Z,0.90
2023-01-25T15:57:59.162Z,0.80
2023-01-25T16:00:27.462Z,0.80
2023-01-25T16:02:55.802Z,0.80
2023-01-25T16:05:26.327Z,0.90
2023-01-25T16:07:54.833Z,0.90
2023-01-25T16:10:25.920Z,0.90
2023-01-25T16:12:54.307Z,0.90
2023-01-25T16:15:24.058Z,0.90
2023-01-25T16:17:52.496Z,0.80
2023-01-25T16:20:22.531Z,0.90
2023-01-25T16:22:50.810Z,0.90
2023-01-25T16:25:19.241Z,0.80
2023-01-25T16:27:48.390Z,0.90
2023-01-25T16:30:23.691Z,0.90
2023-01-25T16:32:53.922Z,0.90
2023-01-25T16:35:23.072Z,0.90
2023-01-25T16:37:51.912Z,0.90
2023-01-25T16:40:24.734Z,0.90
2023-01-25T16:42:53.711Z,0.90
2023-01-25T16:45:24.035Z,0.90
2023-01-25T16:47:53.837Z,0.90
2023-01-25T16:50:23.724Z,0.90
2023-01-25T16:52:53.204Z,0.90
2023-01-25T16:55:21.593Z,0.90
2023-01-25T16:57:52.223Z,0.90
2023-01-25T17:00:21.249Z,0.90
2023-01-25T17:02:58.662Z,1.00
2023-01-25T17:05:32.918Z,0.90
2023-01-25T17:08:02.474Z,0.90
2023-01-25T17:10:34.799Z,1.00
2023-01-25T17:13:04.212Z,1.00
2023-01-25T17:15:32.669Z,1.00
2023-01-25T17:18:01.781Z,1.00
2023-01-25T17:20:31.769Z,1.00
2023-01-25T17:23:00.100Z,1.00
2023-01-25T17:25:32.673Z,1.00
2023-01-25T17:28:01.031Z,1.10
2023-01-25T17:30:29.846Z,1.10
2023-01-25T17:32:58.322Z,1.10
2023-01-25T17:35:26.711Z,1.10
2023-01-25T17:37:57.438Z,1.10
2023-01-25T17:40:25.813Z,1.20
2023-01-25T17:42:54.273Z,1.20
2023-01-25T17:45:22.760Z,1.20
2023-01-25T17:47:51.122Z,1.30
2023-01-25T17:50:19.556Z,1.30
2023-01-25T17:52:47.993Z,1.30
2023-01-25T17:55:18.104Z,1.40
2023-01-25T17:57:46.533Z,1.40
2023-01-25T18:00:16.337Z,1.40
2023-01-25T18:02:46.279Z,1.40
2023-01-25T18:05:16.319Z,1.40
2023-01-25T18:07:45.336Z,1.40
2023-01-25T18:10:13.895Z,1.40
2023-01-25T18:12:46.430Z,1.40
2023-01-25T18:15:20.502Z,1.40
2023-01-25T18:17:49.348Z,1.40
2023-01-25T18:20:18.249Z,1.40
2023-01-25T18:22:46.721Z,1.40
2023-01-25T18:25:32.059Z,1.30
2023-01-25T18:28:03.390Z,1.30
2023-01-25T18:30:36.966Z,1.30
2023-01-25T18:33:07.112Z,1.20
2023-01-25T18:35:35.552Z,1.30
2023-01-25T18:38:05.718Z,1.20
2023-01-25T18:40:34.201Z,1.20
2023-01-25T18:43:07.293Z,1.20
2023-01-25T18:45:36.072Z,1.20
2023-01-25T18:48:07.297Z,1.20
2023-01-25T18:50:35.643Z,1.10
2023-01-25T18:53:04.658Z,1.10
2023-01-25T18:55:33.393Z,1.10
2023-01-25T18:58:04.201Z,1.10
2023-01-25T19:00:33.231Z,1.10
2023-01-25T19:03:02.803Z,1.10
2023-01-25T19:05:31.206Z,1.10
2023-01-25T19:07:59.559Z,1.10
2023-01-25T19:10:28.300Z,1.00
2023-01-25T19:12:56.660Z,1.10
2023-01-25T19:15:26.518Z,1.00
2023-01-25T19:17:54.991Z,1.00
2023-01-25T19:20:23.325Z,1.00
2023-01-25T19:22:55.021Z,1.00
2023-01-25T19:25:24.391Z,1.00
2023-01-25T19:27:52.887Z,1.00
2023-01-25T19:30:21.266Z,1.00
2023-01-25T19:32:51.471Z,1.00
2023-01-25T19:35:20.274Z,0.90
2023-01-25T19:37:48.663Z,1.00
2023-01-25T19:40:18.990Z,1.00
2023-01-25T19:42:47.396Z,1.00
2023-01-25T19:45:16.001Z,1.00
2023-01-25T19:47:44.615Z,1.10
2023-01-25T19:50:15.499Z,1.00
2023-01-25T19:52:44.387Z,1.00
2023-01-25T19:55:14.109Z,1.00
2023-01-25T19:57:43.383Z,1.00
2023-01-25T20:00:13.107Z,1.00
2023-01-25T20:02:42.300Z,1.00
2023-01-25T20:05:11.586Z,1.00
2023-01-25T20:07:42.428Z,1.00
2023-01-25T20:10:12.542Z,1.10
2023-01-25T20:12:41.873Z,1.10
2023-01-25T20:15:14.159Z,1.10
2023-01-25T20:17:43.570Z,1.10
2023-01-25T20:20:12.958Z,1.10
2023-01-25T20:22:43.629Z,1.10
2023-01-25T20:25:12.225Z,1.20
2023-01-25T20:27:40.988Z,1.20
2023-01-25T20:30:10.793Z,1.20
2023-01-25T20:32:39.268Z,1.20
2023-01-25T20:35:09.173Z,1.20
2023-01-25T20:37:37.668Z,1.20
2023-01-25T20:40:08.797Z,1.20
2023-01-25T20:42:37.931Z,1.20
2023-01-25T20:45:08.830Z,1.30
2023-01-25T20:47:37.679Z,1.20
2023-01-25T20:50:07.038Z,1.20
2023-01-25T20:52:35.955Z,1.30
2023-01-25T20:55:05.811Z,1.30
2023-01-25T20:57:35.570Z,1.30
2023-01-25T21:00:04.707Z,1.30
2023-01-25T21:02:33.462Z,1.30
2023-01-25T21:05:02.949Z,1.30
2023-01-25T21:07:31.366Z,1.30
2023-01-25T21:09:59.838Z,1.30
2023-01-25T21:12:28.295Z,1.30
2023-01-25T21:14:58.024Z,1.40
2023-01-25T21:17:26.452Z,1.40
2023-01-25T21:19:54.860Z,1.40
2023-01-25T21:22:23.273Z,1.40
2023-01-25T21:24:51.710Z,1.40
2023-01-25T21:27:20.074Z,1.40
2023-01-25T21:29:48.419Z,1.40
2023-01-25T21:32:18.395Z,1.40
2023-01-25T21:34:50.718Z,1.40
2023-01-25T21:37:19.431Z,1.50
2023-01-25T21:39:47.814Z,1.40
2023-01-25T21:42:16.264Z,1.50
2023-01-25T21:45:02.507Z,1.50
2023-01-25T21:47:32.498Z,1.50
2023-01-25T21:50:18.384Z,1.50
2023-01-25T21:52:46.801Z,1.50
2023-01-25T21:55:15.560Z,1.50
2023-01-25T21:57:47.183Z,1.60
2023-01-25T22:00:17.616Z,1.60
2023-01-25T22:02:47.548Z,1.60
2023-01-25T22:05:17.023Z,1.60
2023-01-25T22:07:46.912Z,1.60
2023-01-25T22:10:15.549Z,1.60
2023-01-25T22:12:45.512Z,1.60
2023-01-25T22:15:13.963Z,1.60
2023-01-25T22:17:42.446Z,1.60
2023-01-25T22:20:12.594Z,1.70
2023-01-25T22:22:41.148Z,1.60
2023-01-25T22:25:11.545Z,1.60
2023-01-25T22:27:48.056Z,1.70
2023-01-25T22:30:16.486Z,1.70
2023-01-25T22:32:44.817Z,1.70
2023-01-25T22:35:13.281Z,1.70
2023-01-25T22:37:41.764Z,1.70
2023-01-25T22:40:13.300Z,1.70
2023-01-25T22:42:42.293Z,1.70
2023-01-25T22:45:11.312Z,1.70
2023-01-25T22:47:41.950Z,1.70
2023-01-25T22:50:12.176Z,1.70
2023-01-25T22:52:40.889Z,1.80
2023-01-25T22:55:11.688Z,1.80
2023-01-25T22:57:40.024Z,1.80
2023-01-25T23:00:10.512Z,1.80
2023-01-25T23:02:39.082Z,1.90
2023-01-25T23:05:08.905Z,1.90
2023-01-25T23:07:37.257Z,1.90
2023-01-25T23:10:06.545Z,1.90
2023-01-25T23:12:36.681Z,1.90
2023-01-25T23:15:07.362Z,2.00
2023-01-25T23:17:52.815Z,2.00
2023-01-25T23:20:21.399Z,2.00
2023-01-25T23:22:51.743Z,2.00
2023-01-25T23:25:20.336Z,2.00
2023-01-25T23:27:50.551Z,2.00
2023-01-25T23:30:19.420Z,2.00
2023-01-25T23:32:50.569Z,2.00
2023-01-25T23:35:19.607Z,2.00
2023-01-25T23:37:48.643Z,2.00
2023-01-25T23:40:17.686Z,2.10
2023-01-25T23:42:46.259Z,2.10
2023-01-25T23:45:16.135Z,2.10
2023-01-25T23:47:44.559Z,2.10
2023-01-25T23:50:13.748Z,2.10
2023-01-25T23:52:42.361Z,2.10
2023-01-25T23:55:11.660Z,2.10
2023-01-25T23:57:40.361Z,2.10
